createdAt,value
2023-04-18T00:00:46.917Z,1.94
2023-04-18T00:03:53.951Z,1.77
2023-04-18T00:06:57.396Z,1.83
2023-04-18T00:10:00.858Z,1.80
2023-04-18T00:13:29.264Z,1.66
2023-04-18T00:16:34.329Z,1.69
2023-04-18T00:19:44.021Z,1.53
2023-04-18T00:22:47.455Z,1.67
2023-04-18T00:25:57.119Z,1.83
2023-04-18T00:29:00.612Z,1.97
2023-04-18T00:32:10.403Z,1.80
2023-04-18T00:35:16.291Z,2.00
2023-04-18T00:38:22.687Z,2.31
2023-04-18T00:41:28.390Z,2.26
2023-04-18T00:44:33.025Z,2.29
2023-04-18T00:47:36.969Z,2.42
2023-04-18T00:50:41.442Z,2.83
2023-04-18T00:53:46.762Z,3.19
2023-04-18T00:56:50.155Z,3.51
2023-04-18T00:59:53.775Z,4.01
2023-04-18T01:03:00.241Z,4.18
2023-04-18T01:06:04.022Z,4.39
2023-04-18T01:09:12.762Z,4.19
2023-04-18T01:12:16.606Z,4.18
2023-04-18T01:15:20.091Z,4.39
2023-04-18T01:18:23.693Z,4.67
2023-04-18T01:21:34.597Z,4.91
2023-04-18T01:24:39.810Z,5.18
2023-04-18T01:27:52.402Z,5.57
2023-04-18T01:31:21.292Z,5.95
2023-04-18T01:34:24.853Z,5.90
2023-04-18T01:37:28.387Z,5.47
2023-04-18T01:40:32.802Z,5.62
2023-04-18T01:43:36.336Z,5.43
2023-04-18T01:46:41.611Z,5.31
2023-04-18T01:49:49.764Z,5.21
2023-04-18T01:53:18.668Z,5.07
2023-04-18T01:56:22.276Z,4.49
2023-04-18T01:59:25.749Z,4.48
2023-04-18T02:02:29.246Z,4.56
2023-04-18T02:05:32.766Z,4.74
2023-04-18T02:08:36.457Z,4.42
2023-04-18T02:11:42.629Z,4.41
2023-04-18T02:14:46.271Z,4.73
2023-04-18T02:17:51.208Z,4.97
2023-04-18T02:20:54.830Z,5.32
2023-04-18T02:24:24.112Z,5.83
2023-04-18T02:27:35.772Z,5.71
2023-04-18T02:30:42.136Z,5.52
2023-04-18T02:33:48.343Z,5.35
2023-04-18T02:36:51.700Z,5.43
2023-04-18T02:39:55.444Z,5.49
2023-04-18T02:43:09.606Z,5.35
2023-04-18T02:46:13.416Z,5.53
2023-04-18T02:52:34.221Z,5.49
2023-04-18T02:55:38.352Z,5.28
2023-04-18T02:58:41.776Z,5.50
2023-04-18T03:02:17.877Z,5.67
2023-04-18T03:05:27.730Z,5.34
2023-04-18T03:08:34.700Z,5.14
2023-04-18T03:11:41.054Z,4.87
2023-04-18T03:14:46.888Z,4.98
2023-04-18T03:17:56.494Z,5.14
2023-04-18T03:21:06.030Z,5.25
2023-04-18T03:24:12.340Z,5.56
2023-04-18T03:27:23.979Z,5.47
2023-04-18T03:30:46.453Z,5.42
2023-04-18T03:48:08.489Z,6.12
2023-04-18T03:51:35.342Z,5.94
2023-04-18T03:54:39.935Z,5.84
2023-04-18T03:57:43.634Z,5.67
2023-04-18T04:00:55.454Z,5.36
2023-04-18T04:07:45.939Z,5.83
2023-04-18T04:11:03.292Z,6.08
2023-04-18T04:14:31.703Z,6.52
2023-04-18T04:17:54.318Z,6.53
2023-04-18T04:21:01.737Z,6.72
2023-04-18T04:24:18.605Z,7.07
2023-04-18T04:27:57.192Z,6.72
2023-04-18T04:31:25.499Z,6.81
2023-04-18T04:34:42.202Z,7.09
2023-04-18T04:37:48.239Z,7.02
2023-04-18T04:41:01.138Z,6.90
2023-04-18T04:44:06.371Z,7.07
2023-04-18T04:47:17.202Z,6.88
2023-04-18T04:50:20.971Z,6.84
2023-04-18T04:53:25.560Z,6.52
2023-04-18T04:56:29.711Z,6.46
2023-04-18T04:59:36.357Z,6.83
2023-04-18T05:02:39.854Z,7.18
2023-04-18T05:05:43.549Z,6.91
2023-04-18T05:08:50.567Z,6.72
2023-04-18T05:11:55.087Z,6.69
2023-04-18T05:14:58.914Z,7.07
2023-04-18T05:18:02.753Z,7.08
2023-04-18T05:21:10.373Z,7.15
2023-04-18T05:24:20.760Z,7.19
2023-04-18T05:27:48.772Z,7.21
2023-04-18T05:31:04.178Z,7.05
2023-04-18T05:34:07.647Z,6.98
2023-04-18T05:37:27.384Z,6.73
2023-04-18T05:40:36.871Z,6.72
2023-04-18T05:43:54.264Z,6.50
2023-04-18T05:50:44.374Z,6.63
2023-04-18T05:53:50.780Z,6.72
2023-04-18T05:56:58.474Z,6.72
2023-04-18T06:00:13.033Z,6.77
2023-04-18T06:03:43.823Z,6.70
2023-04-18T06:06:47.618Z,6.56
2023-04-18T06:09:54.760Z,6.56
2023-04-18T06:13:16.091Z,6.53
2023-04-18T06:16:19.587Z,6.77
2023-04-18T06:19:41.011Z,7.01
2023-04-18T06:23:10.455Z,7.28
2023-04-18T06:26:14.636Z,7.64
2023-04-18T06:29:43.977Z,7.83
2023-04-18T06:32:48.474Z,7.46
2023-04-18T06:35:55.501Z,7.09
2023-04-18T06:39:03.034Z,6.84
2023-04-18T06:42:31.228Z,6.56
2023-04-18T06:45:42.812Z,6.74
2023-04-18T06:49:12.230Z,6.63
2023-04-18T06:52:17.080Z,6.43
2023-04-18T06:55:46.916Z,6.26
2023-04-18T06:59:13.534Z,6.42
2023-04-18T07:02:44.239Z,6.50
2023-04-18T07:05:47.857Z,6.29
2023-04-18T07:08:53.968Z,6.38
2023-04-18T07:15:37.135Z,6.80
2023-04-18T07:25:50.916Z,7.12
2023-04-18T07:29:04.231Z,7.14
2023-04-18T07:32:33.510Z,6.72
2023-04-18T07:35:41.256Z,6.02
2023-04-18T07:39:18.326Z,5.52
2023-04-18T07:42:24.484Z,5.57
2023-04-18T07:45:37.124Z,5.84
2023-04-18T07:48:52.888Z,5.64
2023-04-18T07:55:35.436Z,6.01
2023-04-18T07:58:43.416Z,6.28
2023-04-18T08:01:53.445Z,6.45
2023-04-18T08:05:22.438Z,6.85
2023-04-18T08:09:28.613Z,7.09
2023-04-18T08:12:47.268Z,7.11
2023-04-18T08:19:15.886Z,7.14
2023-04-18T08:23:05.246Z,7.52
2023-04-18T08:26:15.291Z,7.38
2023-04-18T08:29:23.870Z,7.28
2023-04-18T08:32:30.385Z,6.87
2023-04-18T08:35:45.917Z,6.81
2023-04-18T08:39:09.034Z,6.28
2023-04-18T08:42:23.695Z,5.80
2023-04-18T08:45:29.652Z,5.57
2023-04-18T08:49:03.169Z,5.57
2023-04-18T08:56:18.357Z,5.12
2023-04-18T09:03:08.241Z,5.07
2023-04-18T09:06:39.762Z,4.77
2023-04-18T09:09:52.393Z,4.74
2023-04-18T09:13:00.382Z,4.88
2023-04-18T09:16:15.653Z,5.27
2023-04-18T09:19:24.650Z,5.63
2023-04-18T09:22:49.018Z,5.62
2023-04-18T09:26:37.329Z,5.24
2023-04-18T09:29:51.303Z,5.02
2023-04-18T09:33:03.548Z,4.74
2023-04-18T09:36:19.539Z,4.76
2023-04-18T09:39:53.731Z,4.87
2023-04-18T09:42:58.751Z,4.85
2023-04-18T09:46:23.778Z,4.80
2023-04-18T09:49:28.924Z,4.74
2023-04-18T09:57:51.768Z,4.76
2023-04-18T10:01:31.212Z,4.63
2023-04-18T10:04:38.340Z,4.74
2023-04-18T10:08:07.162Z,4.56
2023-04-18T10:11:37.437Z,4.56
2023-04-18T10:14:46.133Z,4.55
2023-04-18T10:21:05.324Z,4.12
2023-04-18T10:24:29.196Z,4.14
2023-04-18T10:27:51.537Z,4.07
2023-04-18T10:31:05.993Z,4.02
2023-04-18T10:34:09.625Z,3.79
2023-04-18T10:37:22.374Z,3.58
2023-04-18T10:40:43.025Z,3.46
2023-04-18T10:44:08.973Z,3.42
2023-04-18T10:47:22.939Z,3.32
2023-04-18T10:50:27.099Z,3.43
2023-04-18T10:53:31.597Z,3.38
2023-04-18T10:56:35.275Z,3.39
2023-04-18T10:59:59.082Z,3.35
2023-04-18T11:03:03.143Z,3.28
2023-04-18T11:06:08.329Z,3.24
2023-04-18T11:09:16.819Z,3.24
2023-04-18T11:12:23.451Z,3.19
2023-04-18T11:15:29.757Z,3.29
2023-04-18T11:18:43.420Z,3.29
2023-04-18T11:21:47.020Z,3.22
2023-04-18T11:24:50.518Z,3.14
2023-04-18T11:27:55.737Z,3.22
2023-04-18T11:31:00.916Z,3.18
2023-04-18T11:34:54.970Z,3.22
2023-04-18T11:37:59.200Z,3.12
2023-04-18T11:41:05.946Z,3.15
2023-04-18T11:44:09.345Z,3.15
2023-04-18T11:47:32.492Z,3.18
2023-04-18T11:50:38.362Z,3.17
2023-04-18T11:53:42.016Z,3.09
2023-04-18T11:56:49.756Z,3.09
2023-04-18T12:00:01.635Z,3.05
2023-04-18T12:03:19.527Z,2.91
2023-04-18T12:06:23.397Z,2.79
2023-04-18T12:09:30.765Z,2.70
2023-04-18T12:12:37.884Z,2.62
2023-04-18T12:15:45.195Z,2.55
2023-04-18T12:18:48.608Z,2.48
2023-04-18T12:28:55.637Z,2.28
2023-04-18T12:32:31.083Z,2.24
2023-04-18T12:36:19.043Z,2.21
2023-04-18T12:39:26.843Z,2.18
2023-04-18T12:42:30.437Z,2.14
2023-04-18T12:45:33.990Z,2.14
2023-04-18T12:48:37.525Z,2.11
2023-04-18T12:52:06.046Z,2.06
2023-04-18T12:55:16.392Z,2.00
2023-04-18T12:58:21.572Z,2.00
2023-04-18T13:01:36.134Z,1.93
2023-04-18T13:04:42.374Z,1.90
2023-04-18T13:07:50.433Z,1.86
2023-04-18T13:10:58.450Z,1.86
2023-04-18T13:14:07.955Z,1.77
2023-04-18T13:17:15.481Z,1.72
2023-04-18T13:20:22.009Z,1.70
2023-04-18T13:23:27.440Z,1.67
2023-04-18T13:27:03.097Z,1.69
2023-04-18T13:30:07.336Z,1.55
2023-04-18T13:33:11.399Z,1.45
2023-04-18T13:36:18.752Z,1.41
2023-04-18T13:39:25.432Z,1.34
2023-04-18T13:42:32.127Z,1.28
2023-04-18T13:45:35.591Z,1.25
2023-04-18T13:49:04.100Z,1.20
2023-04-18T13:52:07.640Z,1.17
2023-04-18T13:55:13.138Z,1.14
2023-04-18T13:58:18.876Z,1.13
2023-04-18T14:01:22.991Z,1.09
2023-04-18T14:04:32.595Z,1.04
2023-04-18T14:07:37.993Z,0.98
2023-04-18T14:10:41.500Z,0.91
2023-04-18T14:13:44.771Z,0.83
2023-04-18T14:16:58.593Z,0.76
2023-04-18T14:20:27.290Z,0.72
2023-04-18T14:23:31.572Z,0.66
2023-04-18T14:26:34.880Z,0.63
2023-04-18T14:30:03.238Z,0.62
2023-04-18T14:33:07.902Z,0.61
2023-04-18T14:36:11.469Z,0.56
2023-04-18T14:39:15.106Z,0.58
2023-04-18T14:42:21.695Z,0.59
2023-04-18T14:45:25.067Z,0.55
2023-04-18T14:48:31.410Z,0.53
2023-04-18T14:51:34.810Z,0.53
2023-04-18T14:54:59.719Z,0.53
2023-04-18T14:58:28.235Z,0.53
2023-04-18T15:01:34.490Z,0.49
2023-04-18T15:04:38.331Z,0.53
2023-04-18T15:07:54.212Z,0.52
2023-04-18T15:10:57.687Z,0.52
2023-04-18T15:14:07.841Z,0.55
2023-04-18T15:17:14.919Z,0.56
2023-04-18T15:20:23.667Z,0.53
2023-04-18T15:23:55.574Z,0.48
2023-04-18T15:27:01.050Z,0.49
2023-04-18T15:30:05.124Z,0.49
2023-04-18T15:33:14.541Z,0.45
2023-04-18T15:36:23.924Z,0.52
2023-04-18T15:39:27.430Z,0.55
2023-04-18T15:42:39.647Z,0.63
2023-04-18T15:45:45.063Z,0.70
2023-04-18T15:49:37.898Z,0.75
2023-04-18T15:52:47.418Z,0.80
2023-04-18T15:55:54.989Z,0.90
2023-04-18T15:59:01.002Z,0.94
2023-04-18T16:02:10.207Z,0.91
2023-04-18T16:05:15.809Z,0.90
2023-04-18T16:08:19.123Z,0.90
2023-04-18T16:11:47.583Z,0.93
2023-04-18T16:14:51.044Z,0.90
2023-04-18T16:17:55.139Z,0.87
2023-04-18T16:21:05.933Z,0.90
2023-04-18T16:24:17.082Z,0.87
2023-04-18T16:27:20.336Z,0.79
2023-04-18T16:30:29.385Z,0.75
2023-04-18T16:33:35.799Z,0.70
2023-04-18T16:37:04.546Z,0.65
2023-04-18T16:40:10.534Z,0.70
2023-04-18T16:43:15.928Z,0.73
2023-04-18T16:46:19.788Z,0.76
2023-04-18T16:49:24.338Z,0.75
2023-04-18T16:52:27.636Z,0.75
2023-04-18T16:55:31.050Z,0.76
2023-04-18T16:58:34.387Z,0.75
2023-04-18T17:01:37.642Z,0.80
2023-04-18T17:04:41.688Z,0.89
2023-04-18T17:07:46.662Z,0.93
2023-04-18T17:10:55.770Z,0.94
2023-04-18T17:13:58.960Z,0.98
2023-04-18T17:17:05.187Z,1.01
2023-04-18T17:20:09.120Z,1.04
2023-04-18T17:23:12.565Z,1.07
2023-04-18T17:26:16.020Z,0.98
2023-04-18T17:29:19.637Z,0.97
2023-04-18T17:32:26.046Z,0.96
2023-04-18T17:35:29.437Z,1.00
2023-04-18T17:38:33.120Z,1.08
2023-04-18T17:41:40.915Z,1.13
2023-04-18T17:44:44.209Z,1.07
2023-04-18T17:47:47.519Z,0.94
2023-04-18T17:50:50.895Z,0.87
2023-04-18T17:53:54.601Z,0.87
2023-04-18T17:56:58.557Z,0.90
2023-04-18T18:00:02.387Z,0.93
2023-04-18T18:03:16.402Z,0.98
2023-04-18T18:06:20.096Z,0.98
2023-04-18T18:09:23.383Z,0.91
2023-04-18T18:12:26.889Z,0.77
2023-04-18T18:15:30.556Z,0.70
2023-04-18T18:18:33.991Z,0.65
2023-04-18T18:21:37.293Z,0.69
2023-04-18T18:24:40.583Z,0.70
2023-04-18T18:27:43.880Z,0.79
2023-04-18T18:30:47.162Z,0.75
2023-04-18T18:33:50.409Z,0.77
2023-04-18T18:36:54.220Z,0.81
2023-04-18T18:39:57.581Z,0.83
2023-04-18T18:43:01.609Z,0.83
2023-04-18T18:46:04.885Z,0.90
2023-04-18T18:49:08.762Z,0.96
2023-04-18T18:52:12.107Z,0.98
2023-04-18T18:55:16.456Z,0.93
2023-04-18T18:58:19.795Z,0.93
2023-04-18T19:04:40.371Z,0.87
2023-04-18T19:07:43.750Z,0.89
2023-04-18T19:10:47.151Z,0.93
2023-04-18T19:13:52.827Z,0.98
2023-04-18T19:16:56.717Z,0.80
2023-04-18T19:20:02.007Z,0.41
2023-04-18T19:23:05.344Z,0.14
2023-04-18T19:26:09.022Z,0.04
2023-04-18T19:29:15.010Z,-0.06
2023-04-18T19:32:18.499Z,-0.07
2023-04-18T19:35:21.925Z,-0.06
2023-04-18T19:38:25.258Z,0.07
2023-04-18T19:41:28.558Z,0.21
2023-04-18T19:44:33.098Z,0.37
2023-04-18T19:47:37.232Z,0.61
2023-04-18T19:50:41.319Z,0.61
2023-04-18T19:53:44.616Z,0.56
2023-04-18T19:56:47.928Z,0.46
2023-04-18T19:59:51.500Z,0.52
2023-04-18T20:02:55.415Z,0.61
2023-04-18T20:05:59.166Z,0.79
2023-04-18T20:09:02.449Z,0.79
2023-04-18T20:12:05.917Z,0.86
2023-04-18T20:15:09.754Z,0.93
2023-04-18T20:18:13.165Z,0.97
2023-04-18T20:21:16.778Z,1.09
2023-04-18T20:24:21.813Z,1.18
2023-04-18T20:27:25.246Z,1.15
2023-04-18T20:30:28.763Z,1.23
2023-04-18T20:33:32.071Z,1.28
2023-04-18T20:36:36.214Z,1.31
2023-04-18T20:39:40.583Z,1.28
2023-04-18T20:42:43.935Z,1.27
2023-04-18T20:45:52.120Z,1.17
2023-04-18T20:48:55.408Z,1.01
2023-04-18T20:51:58.714Z,0.93
2023-04-18T20:55:02.067Z,1.03
2023-04-18T20:58:05.365Z,0.84
2023-04-18T21:01:08.774Z,0.79
2023-04-18T21:04:12.288Z,0.84
2023-04-18T21:07:15.824Z,0.90
2023-04-18T21:10:19.327Z,0.87
2023-04-18T21:13:22.624Z,0.84
2023-04-18T21:16:26.548Z,0.81
2023-04-18T21:19:29.888Z,0.83
2023-04-18T21:22:33.142Z,0.93
2023-04-18T21:25:36.431Z,1.03
2023-04-18T21:28:59.808Z,1.13
2023-04-18T21:32:03.717Z,1.13
2023-04-18T21:35:07.598Z,1.11
2023-04-18T21:38:10.857Z,1.08
2023-04-18T21:41:17.609Z,0.93
2023-04-18T21:44:21.001Z,0.90
2023-04-18T21:47:24.386Z,1.03
2023-04-18T21:50:27.680Z,1.04
2023-04-18T21:53:31.095Z,1.09
2023-04-18T21:56:34.392Z,1.14
2023-04-18T21:59:37.732Z,1.15
2023-04-18T22:02:41.226Z,1.14
2023-04-18T22:05:44.642Z,1.13
2023-04-18T22:08:48.906Z,1.27
2023-04-18T22:11:52.435Z,1.32
2023-04-18T22:14:57.384Z,1.35
2023-04-18T22:18:01.823Z,1.38
2023-04-18T22:21:05.251Z,1.43
2023-04-18T22:24:09.297Z,1.35
2023-04-18T22:27:12.679Z,1.43
2023-04-18T22:30:16.218Z,1.55
2023-04-18T22:33:19.587Z,1.73
2023-04-18T22:36:22.921Z,1.72
2023-04-18T22:39:26.779Z,1.70
2023-04-18T22:42:30.220Z,1.66
2023-04-18T22:45:35.377Z,1.74
2023-04-18T22:48:39.115Z,1.76
2023-04-18T22:51:42.957Z,1.77
2023-04-18T22:54:46.401Z,1.72
2023-04-18T22:57:49.662Z,1.79
2023-04-18T23:00:52.918Z,1.79
2023-04-18T23:03:56.729Z,1.77
2023-04-18T23:07:00.193Z,1.77
2023-04-18T23:10:07.039Z,1.83
2023-04-18T23:13:10.358Z,1.74
2023-04-18T23:16:13.766Z,1.72
2023-04-18T23:19:17.132Z,1.63
2023-04-18T23:22:21.103Z,1.72
2023-04-18T23:25:24.513Z,1.74
2023-04-18T23:28:27.846Z,1.73
2023-04-18T23:31:33.552Z,1.72
2023-04-18T23:34:36.926Z,1.69
2023-04-18T23:37:40.241Z,1.43
2023-04-18T23:40:43.600Z,1.23
2023-04-18T23:43:46.927Z,1.08
2023-04-18T23:46:50.421Z,1.03
2023-04-18T23:49:53.684Z,0.97
2023-04-18T23:52:57.103Z,1.00
2023-04-18T23:56:00.483Z,1.05
2023-04-18T23:59:03.805Z,1.05
